sensor_id;sensor_type;location;lat;lon;timestamp;pressure;altitude;pressure_sealevel;temperature;humidity
67373;BME280;54257;54.496;18.412;2022-08-11T00:00:42;100921.15;;;13.62;64.85
67373;BME280;54257;54.496;18.412;2022-08-11T00:03:12;100919.23;;;13.60;64.82
67373;BME280;54257;54.496;18.412;2022-08-11T00:05:50;100919.67;;;13.57;64.83
67373;BME280;54257;54.496;18.412;2022-08-11T00:08:23;100920.83;;;13.54;64.88
67373;BME280;54257;54.496;18.412;2022-08-11T00:10:51;100919.27;;;13.53;64.83
67373;BME280;54257;54.496;18.412;2022-08-11T00:13:21;100914.52;;;13.49;65.01
67373;BME280;54257;54.496;18.412;2022-08-11T00:15:49;100918.77;;;13.46;65.20
67373;BME280;54257;54.496;18.412;2022-08-11T00:18:17;100916.16;;;13.44;65.43
67373;BME280;54257;54.496;18.412;2022-08-11T00:20:44;100912.96;;;13.39;65.83
67373;BME280;54257;54.496;18.412;2022-08-11T00:23:14;100913.03;;;13.34;65.96
67373;BME280;54257;54.496;18.412;2022-08-11T00:25:48;100907.97;;;13.30;65.98
67373;BME280;54257;54.496;18.412;2022-08-11T00:30:58;100909.73;;;13.25;66.06
67373;BME280;54257;54.496;18.412;2022-08-11T00:33:45;100908.68;;;13.24;66.12
67373;BME280;54257;54.496;18.412;2022-08-11T00:36:15;100910.55;;;13.23;65.98
67373;BME280;54257;54.496;18.412;2022-08-11T00:38:44;100908.44;;;13.20;66.03
67373;BME280;54257;54.496;18.412;2022-08-11T00:41:43;100907.16;;;13.18;66.19
67373;BME280;54257;54.496;18.412;2022-08-11T01:29:33;100920.98;;;12.40;66.63
67373;BME280;54257;54.496;18.412;2022-08-11T01:46:55;100920.06;;;12.11;67.57
67373;BME280;54257;54.496;18.412;2022-08-11T01:49:47;100927.86;;;12.08;67.83
67373;BME280;54257;54.496;18.412;2022-08-11T01:52:29;100928.61;;;12.04;67.72
67373;BME280;54257;54.496;18.412;2022-08-11T01:57:43;100929.22;;;12.00;68.01
67373;BME280;54257;54.496;18.412;2022-08-11T02:00:16;100924.58;;;11.99;68.07
67373;BME280;54257;54.496;18.412;2022-08-11T02:02:52;100924.02;;;11.98;68.11
67373;BME280;54257;54.496;18.412;2022-08-11T02:10:51;100923.45;;;11.90;68.14
67373;BME280;54257;54.496;18.412;2022-08-11T02:28:01;100927.61;;;11.74;68.42
67373;BME280;54257;54.496;18.412;2022-08-11T02:30:36;100926.48;;;11.70;68.64
67373;BME280;54257;54.496;18.412;2022-08-11T02:33:21;100931.20;;;11.67;68.80
67373;BME280;54257;54.496;18.412;2022-08-11T02:36:07;100932.91;;;11.68;68.94
67373;BME280;54257;54.496;18.412;2022-08-11T02:38:42;100934.45;;;11.67;69.01
67373;BME280;54257;54.496;18.412;2022-08-11T02:41:44;100933.59;;;11.67;69.09
67373;BME280;54257;54.496;18.412;2022-08-11T02:48:11;100935.68;;;11.63;69.16
67373;BME280;54257;54.496;18.412;2022-08-11T02:51:29;100934.27;;;11.62;69.24
67373;BME280;54257;54.496;18.412;2022-08-11T02:54:20;100935.95;;;11.60;69.30
67373;BME280;54257;54.496;18.412;2022-08-11T02:56:53;100935.27;;;11.60;69.20
67373;BME280;54257;54.496;18.412;2022-08-11T03:05:15;100932.70;;;11.60;69.58
67373;BME280;54257;54.496;18.412;2022-08-11T03:13:24;100940.39;;;11.54;69.39
67373;BME280;54257;54.496;18.412;2022-08-11T03:16:23;100936.58;;;11.52;69.55
67373;BME280;54257;54.496;18.412;2022-08-11T03:21:47;100935.14;;;11.49;69.64
67373;BME280;54257;54.496;18.412;2022-08-11T03:24:28;100936.35;;;11.49;69.77
67373;BME280;54257;54.496;18.412;2022-08-11T03:27:12;100934.63;;;11.49;70.14
67373;BME280;54257;54.496;18.412;2022-08-11T03:30:06;100937.11;;;11.47;70.35
67373;BME280;54257;54.496;18.412;2022-08-11T03:32:40;100938.81;;;11.47;70.03
67373;BME280;54257;54.496;18.412;2022-08-11T03:35:08;100936.14;;;11.49;70.34
67373;BME280;54257;54.496;18.412;2022-08-11T03:37:55;100937.23;;;11.51;70.43
67373;BME280;54257;54.496;18.412;2022-08-11T03:46:33;100933.18;;;11.59;70.79
67373;BME280;54257;54.496;18.412;2022-08-11T03:49:29;100931.69;;;11.61;71.00
67373;BME280;54257;54.496;18.412;2022-08-11T03:52:36;100933.64;;;11.64;71.10
67373;BME280;54257;54.496;18.412;2022-08-11T04:01:07;100928.77;;;11.72;71.31
67373;BME280;54257;54.496;18.412;2022-08-11T04:21:14;100947.80;;;11.91;72.25
67373;BME280;54257;54.496;18.412;2022-08-11T04:35:38;100942.98;;;12.16;72.93
67373;BME280;54257;54.496;18.412;2022-08-11T04:38:30;100944.50;;;12.22;73.01
67373;BME280;54257;54.496;18.412;2022-08-11T04:44:23;100941.71;;;12.33;73.72
67373;BME280;54257;54.496;18.412;2022-08-11T04:50:22;100939.34;;;12.48;74.41
67373;BME280;54257;54.496;18.412;2022-08-11T04:53:33;100934.55;;;12.55;74.70
67373;BME280;54257;54.496;18.412;2022-08-11T04:56:19;100934.23;;;12.63;75.07
67373;BME280;54257;54.496;18.412;2022-08-11T05:17:03;100922.45;;;13.25;78.10
67373;BME280;54257;54.496;18.412;2022-08-11T05:19:50;100922.71;;;13.38;78.81
67373;BME280;54257;54.496;18.412;2022-08-11T05:22:36;100924.56;;;13.53;79.84
67373;BME280;54257;54.496;18.412;2022-08-11T05:25:30;100917.13;;;13.68;80.45
67373;BME280;54257;54.496;18.412;2022-08-11T05:28:32;100911.28;;;13.85;81.20
67373;BME280;54257;54.496;18.412;2022-08-11T05:31:37;100912.46;;;14.03;82.00
67373;BME280;54257;54.496;18.412;2022-08-11T05:34:39;100910.77;;;14.24;82.89
67373;BME280;54257;54.496;18.412;2022-08-11T05:37:32;100905.98;;;14.45;83.77
67373;BME280;54257;54.496;18.412;2022-08-11T05:42:52;100905.04;;;14.84;83.62
67373;BME280;54257;54.496;18.412;2022-08-11T05:45:40;100905.73;;;15.08;85.44
67373;BME280;54257;54.496;18.412;2022-08-11T05:48:33;100902.28;;;15.34;85.70
67373;BME280;54257;54.496;18.412;2022-08-11T05:51:20;100903.66;;;15.63;85.38
67373;BME280;54257;54.496;18.412;2022-08-11T05:54:07;100902.98;;;15.93;85.48
67373;BME280;54257;54.496;18.412;2022-08-11T05:56:55;100907.14;;;16.35;85.80
67373;BME280;54257;54.496;18.412;2022-08-11T05:59:26;100904.23;;;16.80;86.27
67373;BME280;54257;54.496;18.412;2022-08-11T06:02:03;100907.05;;;17.25;85.79
67373;BME280;54257;54.496;18.412;2022-08-11T06:04:32;100905.84;;;17.66;84.33
67373;BME280;54257;54.496;18.412;2022-08-11T06:07:05;100907.52;;;18.01;83.65
67373;BME280;54257;54.496;18.412;2022-08-11T06:09:47;100912.90;;;18.50;82.85
67373;BME280;54257;54.496;18.412;2022-08-11T06:12:23;100912.17;;;18.89;80.78
67373;BME280;54257;54.496;18.412;2022-08-11T06:14:54;100918.82;;;19.27;79.23
67373;BME280;54257;54.496;18.412;2022-08-11T06:17:27;100920.80;;;19.57;77.94
67373;BME280;54257;54.496;18.412;2022-08-11T06:20:02;100917.52;;;19.90;76.57
67373;BME280;54257;54.496;18.412;2022-08-11T06:22:38;100920.06;;;20.21;75.81
67373;BME280;54257;54.496;18.412;2022-08-11T06:25:10;100919.66;;;20.55;74.02
67373;BME280;54257;54.496;18.412;2022-08-11T06:27:40;100917.17;;;20.79;73.03
67373;BME280;54257;54.496;18.412;2022-08-11T06:30:09;100921.08;;;21.21;72.88
67373;BME280;54257;54.496;18.412;2022-08-11T06:32:45;100917.73;;;21.67;71.44
67373;BME280;54257;54.496;18.412;2022-08-11T06:35:32;100913.42;;;22.01;69.53
67373;BME280;54257;54.496;18.412;2022-08-11T06:38:08;100914.45;;;22.37;67.81
67373;BME280;54257;54.496;18.412;2022-08-11T06:40:53;100917.23;;;22.57;64.74
67373;BME280;54257;54.496;18.412;2022-08-11T06:43:51;100920.75;;;22.94;64.17
67373;BME280;54257;54.496;18.412;2022-08-11T06:46:31;100917.52;;;23.53;64.02
67373;BME280;54257;54.496;18.412;2022-08-11T06:49:03;100919.04;;;24.02;61.05
67373;BME280;54257;54.496;18.412;2022-08-11T06:51:33;100919.58;;;24.39;59.64
67373;BME280;54257;54.496;18.412;2022-08-11T06:54:11;100920.95;;;24.68;58.67
67373;BME280;54257;54.496;18.412;2022-08-11T06:56:39;100918.62;;;24.96;57.42
67373;BME280;54257;54.496;18.412;2022-08-11T06:59:25;100915.18;;;25.26;55.55
67373;BME280;54257;54.496;18.412;2022-08-11T07:02:19;100912.89;;;25.50;55.37
67373;BME280;54257;54.496;18.412;2022-08-11T07:13:51;100914.11;;;25.39;50.85
67373;BME280;54257;54.496;18.412;2022-08-11T07:16:40;100910.08;;;25.68;51.22
67373;BME280;54257;54.496;18.412;2022-08-11T07:19:10;100912.70;;;26.03;49.70
67373;BME280;54257;54.496;18.412;2022-08-11T07:22:01;100913.27;;;26.34;47.90
67373;BME280;54257;54.496;18.412;2022-08-11T07:25:09;100916.28;;;26.54;44.70
67373;BME280;54257;54.496;18.412;2022-08-11T07:28:23;100919.27;;;26.65;41.77
67373;BME280;54257;54.496;18.412;2022-08-11T07:31:13;100916.85;;;26.93;41.24
67373;BME280;54257;54.496;18.412;2022-08-11T07:33:46;100917.55;;;27.28;42.39
67373;BME280;54257;54.496;18.412;2022-08-11T07:36:15;100914.88;;;27.66;42.67
67373;BME280;54257;54.496;18.412;2022-08-11T07:38:46;100914.73;;;27.92;41.29
67373;BME280;54257;54.496;18.412;2022-08-11T07:41:19;100914.94;;;28.09;42.25
67373;BME280;54257;54.496;18.412;2022-08-11T07:43:54;100916.48;;;28.05;41.09
67373;BME280;54257;54.496;18.412;2022-08-11T07:46:22;100919.86;;;27.83;40.24
67373;BME280;54257;54.496;18.412;2022-08-11T07:49:09;100918.43;;;27.46;40.50
67373;BME280;54257;54.496;18.412;2022-08-11T07:51:55;100917.21;;;27.64;41.50
67373;BME280;54257;54.496;18.412;2022-08-11T07:54:41;100919.95;;;27.80;42.04
67373;BME280;54257;54.496;18.412;2022-08-11T07:57:10;100915.83;;;28.04;41.81
67373;BME280;54257;54.496;18.412;2022-08-11T07:59:57;100917.86;;;28.45;41.82
67373;BME280;54257;54.496;18.412;2022-08-11T08:02:43;100914.52;;;28.74;40.10
67373;BME280;54257;54.496;18.412;2022-08-11T08:05:29;100915.44;;;28.93;38.59
67373;BME280;54257;54.496;18.412;2022-08-11T08:08:15;100916.23;;;29.19;37.85
67373;BME280;54257;54.496;18.412;2022-08-11T08:11:02;100912.39;;;29.41;35.36
67373;BME280;54257;54.496;18.412;2022-08-11T08:13:48;100911.10;;;29.04;34.32
67373;BME280;54257;54.496;18.412;2022-08-11T08:16:36;100912.36;;;28.99;36.31
67373;BME280;54257;54.496;18.412;2022-08-11T08:19:22;100913.47;;;29.33;36.96
67373;BME280;54257;54.496;18.412;2022-08-11T08:21:50;100913.47;;;29.64;37.03
67373;BME280;54257;54.496;18.412;2022-08-11T08:24:18;100917.70;;;29.71;36.90
67373;BME280;54257;54.496;18.412;2022-08-11T08:26:47;100912.39;;;29.75;37.50
67373;BME280;54257;54.496;18.412;2022-08-11T08:29:33;100914.45;;;29.99;37.97
67373;BME280;54257;54.496;18.412;2022-08-11T08:32:19;100911.82;;;30.34;36.81
67373;BME280;54257;54.496;18.412;2022-08-11T08:34:51;100911.02;;;30.60;36.17
67373;BME280;54257;54.496;18.412;2022-08-11T08:37:22;100910.38;;;30.62;33.70
67373;BME280;54257;54.496;18.412;2022-08-11T08:39:50;100911.25;;;30.56;32.37
67373;BME280;54257;54.496;18.412;2022-08-11T08:42:20;100905.80;;;30.73;32.79
67373;BME280;54257;54.496;18.412;2022-08-11T08:45:09;100904.01;;;30.87;32.20
67373;BME280;54257;54.496;18.412;2022-08-11T08:47:40;100902.73;;;30.84;31.33
67373;BME280;54257;54.496;18.412;2022-08-11T08:50:11;100898.05;;;30.96;31.22
67373;BME280;54257;54.496;18.412;2022-08-11T08:52:43;100891.56;;;31.18;30.33
67373;BME280;54257;54.496;18.412;2022-08-11T08:55:16;100892.42;;;31.32;29.90
67373;BME280;54257;54.496;18.412;2022-08-11T08:57:44;100890.04;;;31.24;29.78
67373;BME280;54257;54.496;18.412;2022-08-11T09:00:15;100890.88;;;31.08;29.10
67373;BME280;54257;54.496;18.412;2022-08-11T09:02:43;100888.61;;;30.94;28.72
67373;BME280;54257;54.496;18.412;2022-08-11T09:05:12;100890.94;;;30.84;29.05
67373;BME280;54257;54.496;18.412;2022-08-11T09:07:43;100892.60;;;30.92;29.26
67373;BME280;54257;54.496;18.412;2022-08-11T09:10:14;100887.75;;;31.27;29.13
67373;BME280;54257;54.496;18.412;2022-08-11T09:12:44;100892.63;;;31.47;28.46
67373;BME280;54257;54.496;18.412;2022-08-11T09:15:12;100888.00;;;31.45;28.18
67373;BME280;54257;54.496;18.412;2022-08-11T09:17:47;100885.84;;;31.33;28.06
67373;BME280;54257;54.496;18.412;2022-08-11T09:20:18;100880.86;;;31.30;29.16
67373;BME280;54257;54.496;18.412;2022-08-11T09:22:48;100882.48;;;31.49;28.82
67373;BME280;54257;54.496;18.412;2022-08-11T09:25:34;100883.50;;;31.56;28.26
67373;BME280;54257;54.496;18.412;2022-08-11T09:28:21;100882.73;;;31.32;27.16
67373;BME280;54257;54.496;18.412;2022-08-11T09:30:51;100885.71;;;30.72;27.07
67373;BME280;54257;54.496;18.412;2022-08-11T09:33:23;100884.37;;;30.88;28.05
67373;BME280;54257;54.496;18.412;2022-08-11T09:35:52;100885.09;;;31.20;27.57
67373;BME280;54257;54.496;18.412;2022-08-11T09:38:21;100877.67;;;31.56;26.78
67373;BME280;54257;54.496;18.412;2022-08-11T09:41:09;100875.44;;;31.77;26.00
67373;BME280;54257;54.496;18.412;2022-08-11T09:43:42;100874.98;;;31.86;25.98
67373;BME280;54257;54.496;18.412;2022-08-11T09:46:29;100875.22;;;31.84;25.82
67373;BME280;54257;54.496;18.412;2022-08-11T09:48:59;100870.80;;;31.68;24.94
67373;BME280;54257;54.496;18.412;2022-08-11T09:51:30;100871.88;;;31.56;26.21
67373;BME280;54257;54.496;18.412;2022-08-11T09:54:02;100870.99;;;31.30;25.55
67373;BME280;54257;54.496;18.412;2022-08-11T09:56:33;100874.65;;;31.04;26.03
67373;BME280;54257;54.496;18.412;2022-08-11T09:59:20;100866.02;;;30.84;25.88
67373;BME280;54257;54.496;18.412;2022-08-11T10:01:57;100867.30;;;30.74;25.99
67373;BME280;54257;54.496;18.412;2022-08-11T10:04:40;100867.86;;;30.39;25.55
67373;BME280;54257;54.496;18.412;2022-08-11T10:07:09;100865.30;;;30.44;26.18
67373;BME280;54257;54.496;18.412;2022-08-11T10:09:50;100863.50;;;30.61;26.13
67373;BME280;54257;54.496;18.412;2022-08-11T10:12:36;100864.64;;;30.77;26.26
67373;BME280;54257;54.496;18.412;2022-08-11T10:15:08;100855.83;;;31.13;25.07
67373;BME280;54257;54.496;18.412;2022-08-11T10:18:16;100853.06;;;31.12;24.52
67373;BME280;54257;54.496;18.412;2022-08-11T10:21:16;100846.94;;;31.01;24.94
67373;BME280;54257;54.496;18.412;2022-08-11T10:23:44;100846.83;;;31.03;25.24
67373;BME280;54257;54.496;18.412;2022-08-11T10:26:29;100848.66;;;31.21;24.85
67373;BME280;54257;54.496;18.412;2022-08-11T10:29:17;100843.66;;;30.90;24.10
67373;BME280;54257;54.496;18.412;2022-08-11T10:32:04;100846.30;;;30.77;25.74
67373;BME280;54257;54.496;18.412;2022-08-11T10:34:51;100843.31;;;30.60;24.53
67373;BME280;54257;54.496;18.412;2022-08-11T10:37:20;100846.80;;;30.26;24.48
67373;BME280;54257;54.496;18.412;2022-08-11T10:39:50;100843.90;;;29.78;25.44
67373;BME280;54257;54.496;18.412;2022-08-11T10:42:18;100840.75;;;29.63;25.89
67373;BME280;54257;54.496;18.412;2022-08-11T10:45:05;100840.06;;;29.95;26.35
67373;BME280;54257;54.496;18.412;2022-08-11T10:47:55;100838.65;;;30.27;25.17
67373;BME280;54257;54.496;18.412;2022-08-11T10:50:25;100836.55;;;30.27;25.44
67373;BME280;54257;54.496;18.412;2022-08-11T10:53:11;100832.84;;;30.27;24.83
67373;BME280;54257;54.496;18.412;2022-08-11T10:55:58;100831.84;;;30.11;25.24
67373;BME280;54257;54.496;18.412;2022-08-11T10:58:44;100827.17;;;30.02;25.28
67373;BME280;54257;54.496;18.412;2022-08-11T11:01:31;100829.70;;;30.26;25.75
67373;BME280;54257;54.496;18.412;2022-08-11T11:07:04;100828.24;;;30.21;25.02
67373;BME280;54257;54.496;18.412;2022-08-11T11:15:04;100824.75;;;30.27;25.50
67373;BME280;54257;54.496;18.412;2022-08-11T11:18:02;100824.83;;;30.32;24.89
67373;BME280;54257;54.496;18.412;2022-08-11T11:21:06;100822.73;;;30.31;24.84
67373;BME280;54257;54.496;18.412;2022-08-11T11:23:54;100821.29;;;30.32;25.05
67373;BME280;54257;54.496;18.412;2022-08-11T11:26:40;100823.14;;;30.37;24.65
67373;BME280;54257;54.496;18.412;2022-08-11T11:32:17;100823.17;;;30.46;24.44
67373;BME280;54257;54.496;18.412;2022-08-11T11:37:42;100820.64;;;29.81;23.93
67373;BME280;54257;54.496;18.412;2022-08-11T11:40:54;100819.92;;;29.85;25.04
67373;BME280;54257;54.496;18.412;2022-08-11T11:43:40;100819.84;;;30.01;25.46
67373;BME280;54257;54.496;18.412;2022-08-11T11:46:09;100821.20;;;30.30;25.09
67373;BME280;54257;54.496;18.412;2022-08-11T11:48:37;100822.66;;;30.43;24.71
67373;BME280;54257;54.496;18.412;2022-08-11T11:51:04;100820.44;;;30.45;24.83
67373;BME280;54257;54.496;18.412;2022-08-11T11:53:32;100817.10;;;30.38;24.60
67373;BME280;54257;54.496;18.412;2022-08-11T11:56:01;100818.85;;;30.41;25.31
67373;BME280;54257;54.496;18.412;2022-08-11T11:58:38;100822.42;;;30.24;24.89
67373;BME280;54257;54.496;18.412;2022-08-11T12:01:42;100818.52;;;30.10;25.65
67373;BME280;54257;54.496;18.412;2022-08-11T12:04:11;100821.95;;;30.26;25.37
67373;BME280;54257;54.496;18.412;2022-08-11T12:06:40;100824.48;;;30.25;25.06
67373;BME280;54257;54.496;18.412;2022-08-11T12:09:23;100819.74;;;30.48;25.65
67373;BME280;54257;54.496;18.412;2022-08-11T12:12:05;100819.59;;;30.44;25.01
67373;BME280;54257;54.496;18.412;2022-08-11T12:14:52;100816.52;;;30.39;25.35
67373;BME280;54257;54.496;18.412;2022-08-11T12:17:20;100819.14;;;30.53;24.93
67373;BME280;54257;54.496;18.412;2022-08-11T12:19:48;100817.27;;;30.58;24.50
67373;BME280;54257;54.496;18.412;2022-08-11T12:22:16;100821.52;;;30.61;24.68
67373;BME280;54257;54.496;18.412;2022-08-11T12:25:02;100816.91;;;30.69;24.83
67373;BME280;54257;54.496;18.412;2022-08-11T12:27:52;100814.98;;;30.58;24.37
67373;BME280;54257;54.496;18.412;2022-08-11T12:30:20;100813.58;;;30.24;24.39
67373;BME280;54257;54.496;18.412;2022-08-11T12:32:48;100807.25;;;29.89;25.16
67373;BME280;54257;54.496;18.412;2022-08-11T12:35:15;100810.65;;;29.81;25.47
67373;BME280;54257;54.496;18.412;2022-08-11T12:37:51;100805.60;;;29.58;25.59
67373;BME280;54257;54.496;18.412;2022-08-11T12:40:27;100806.39;;;29.56;25.98
67373;BME280;54257;54.496;18.412;2022-08-11T12:43:16;100804.21;;;29.76;26.44
67373;BME280;54257;54.496;18.412;2022-08-11T12:46:20;100801.91;;;29.93;26.60
67373;BME280;54257;54.496;18.412;2022-08-11T12:48:55;100798.38;;;30.00;26.36
67373;BME280;54257;54.496;18.412;2022-08-11T12:51:46;100796.45;;;30.03;26.58
67373;BME280;54257;54.496;18.412;2022-08-11T12:57:11;100789.38;;;29.69;25.89
67373;BME280;54257;54.496;18.412;2022-08-11T13:00:04;100787.38;;;29.41;26.50
67373;BME280;54257;54.496;18.412;2022-08-11T13:02:50;100786.14;;;29.19;27.05
67373;BME280;54257;54.496;18.412;2022-08-11T13:05:37;100786.05;;;29.21;27.50
67373;BME280;54257;54.496;18.412;2022-08-11T13:08:04;100783.98;;;29.24;26.64
67373;BME280;54257;54.496;18.412;2022-08-11T13:10:33;100781.85;;;29.27;27.16
67373;BME280;54257;54.496;18.412;2022-08-11T13:13:19;100780.92;;;29.40;26.89
67373;BME280;54257;54.496;18.412;2022-08-11T13:15:47;100776.60;;;29.45;27.07
67373;BME280;54257;54.496;18.412;2022-08-11T13:18:17;100777.27;;;29.46;27.24
67373;BME280;54257;54.496;18.412;2022-08-11T13:20:52;100774.55;;;29.52;27.17
67373;BME280;54257;54.496;18.412;2022-08-11T13:23:22;100765.84;;;29.57;27.07
67373;BME280;54257;54.496;18.412;2022-08-11T13:25:52;100757.14;;;29.69;26.83
67373;BME280;54257;54.496;18.412;2022-08-11T13:28:22;100757.21;;;29.61;26.41
67373;BME280;54257;54.496;18.412;2022-08-11T13:30:50;100756.70;;;29.42;26.66
67373;BME280;54257;54.496;18.412;2022-08-11T13:33:45;100753.83;;;29.46;27.08
67373;BME280;54257;54.496;18.412;2022-08-11T13:36:13;100754.92;;;29.53;27.14
67373;BME280;54257;54.496;18.412;2022-08-11T13:38:45;100754.49;;;29.54;26.69
67373;BME280;54257;54.496;18.412;2022-08-11T13:41:12;100749.38;;;29.55;27.08
67373;BME280;54257;54.496;18.412;2022-08-11T13:43:59;100748.43;;;29.60;26.47
67373;BME280;54257;54.496;18.412;2022-08-11T13:46:28;100746.77;;;29.40;26.50
67373;BME280;54257;54.496;18.412;2022-08-11T13:48:56;100741.48;;;29.36;26.72
67373;BME280;54257;54.496;18.412;2022-08-11T13:51:25;100735.58;;;29.35;26.94
67373;BME280;54257;54.496;18.412;2022-08-11T13:54:03;100731.77;;;29.30;26.68
67373;BME280;54257;54.496;18.412;2022-08-11T13:56:32;100726.94;;;29.20;27.00
67373;BME280;54257;54.496;18.412;2022-08-11T13:59:02;100719.83;;;29.18;26.81
67373;BME280;54257;54.496;18.412;2022-08-11T14:01:32;100718.95;;;29.22;27.21
67373;BME280;54257;54.496;18.412;2022-08-11T14:04:08;100717.10;;;29.20;27.07
67373;BME280;54257;54.496;18.412;2022-08-11T14:06:38;100713.67;;;29.18;26.68
67373;BME280;54257;54.496;18.412;2022-08-11T14:09:07;100706.12;;;29.10;27.24
67373;BME280;54257;54.496;18.412;2022-08-11T14:11:36;100703.39;;;28.90;27.90
67373;BME280;54257;54.496;18.412;2022-08-11T14:14:25;100704.30;;;28.89;27.44
67373;BME280;54257;54.496;18.412;2022-08-11T14:16:55;100706.48;;;28.80;27.24
67373;BME280;54257;54.496;18.412;2022-08-11T14:19:25;100705.86;;;28.74;27.69
67373;BME280;54257;54.496;18.412;2022-08-11T14:21:53;100705.61;;;28.80;27.69
67373;BME280;54257;54.496;18.412;2022-08-11T14:24:38;100702.12;;;28.72;27.14
67373;BME280;54257;54.496;18.412;2022-08-11T14:27:08;100699.19;;;28.63;27.55
67373;BME280;54257;54.496;18.412;2022-08-11T14:29:38;100697.48;;;28.62;28.10
67373;BME280;54257;54.496;18.412;2022-08-11T14:32:09;100698.35;;;28.66;28.14
67373;BME280;54257;54.496;18.412;2022-08-11T14:34:42;100698.96;;;28.57;28.17
67373;BME280;54257;54.496;18.412;2022-08-11T14:37:18;100704.27;;;28.40;28.23
67373;BME280;54257;54.496;18.412;2022-08-11T14:39:58;100702.96;;;28.30;28.63
67373;BME280;54257;54.496;18.412;2022-08-11T14:42:27;100703.36;;;28.17;28.48
67373;BME280;54257;54.496;18.412;2022-08-11T14:45:15;100701.11;;;28.16;29.20
67373;BME280;54257;54.496;18.412;2022-08-11T14:48:03;100698.10;;;28.13;29.21
67373;BME280;54257;54.496;18.412;2022-08-11T14:50:34;100692.48;;;28.05;29.48
67373;BME280;54257;54.496;18.412;2022-08-11T14:53:05;100695.11;;;28.01;29.05
67373;BME280;54257;54.496;18.412;2022-08-11T14:55:38;100692.85;;;27.88;29.28
67373;BME280;54257;54.496;18.412;2022-08-11T14:58:27;100689.69;;;27.76;30.41
67373;BME280;54257;54.496;18.412;2022-08-11T15:00:57;100690.98;;;27.70;30.57
67373;BME280;54257;54.496;18.412;2022-08-11T15:03:28;100692.42;;;27.56;30.22
67373;BME280;54257;54.496;18.412;2022-08-11T15:05:58;100691.34;;;27.36;30.35
67373;BME280;54257;54.496;18.412;2022-08-11T15:08:30;100695.29;;;27.26;31.14
67373;BME280;54257;54.496;18.412;2022-08-11T15:11:20;100703.10;;;27.06;31.26
67373;BME280;54257;54.496;18.412;2022-08-11T15:14:07;100703.09;;;26.97;31.84
67373;BME280;54257;54.496;18.412;2022-08-11T15:16:41;100704.77;;;26.94;31.98
67373;BME280;54257;54.496;18.412;2022-08-11T15:19:29;100698.50;;;26.88;32.37
67373;BME280;54257;54.496;18.412;2022-08-11T15:21:57;100698.41;;;26.95;32.72
67373;BME280;54257;54.496;18.412;2022-08-11T15:24:43;100692.47;;;26.94;31.99
67373;BME280;54257;54.496;18.412;2022-08-11T15:27:13;100693.27;;;26.88;31.79
67373;BME280;54257;54.496;18.412;2022-08-11T15:30:03;100692.27;;;26.82;32.03
67373;BME280;54257;54.496;18.412;2022-08-11T15:32:50;100694.99;;;26.70;32.63
67373;BME280;54257;54.496;18.412;2022-08-11T15:35:40;100693.59;;;26.56;33.37
67373;BME280;54257;54.496;18.412;2022-08-11T15:38:27;100694.30;;;26.42;33.17
67373;BME280;54257;54.496;18.412;2022-08-11T15:41:02;100694.35;;;26.25;33.15
67373;BME280;54257;54.496;18.412;2022-08-11T15:43:52;100696.42;;;26.12;34.27
67373;BME280;54257;54.496;18.412;2022-08-11T15:46:43;100698.90;;;26.01;34.62
67373;BME280;54257;54.496;18.412;2022-08-11T15:49:18;100699.73;;;25.92;35.09
67373;BME280;54257;54.496;18.412;2022-08-11T15:51:56;100701.91;;;25.86;35.61
67373;BME280;54257;54.496;18.412;2022-08-11T15:54:28;100696.61;;;25.77;36.74
67373;BME280;54257;54.496;18.412;2022-08-11T15:56:59;100695.66;;;25.62;37.33
67373;BME280;54257;54.496;18.412;2022-08-11T15:59:37;100697.86;;;25.49;37.37
67373;BME280;54257;54.496;18.412;2022-08-11T16:02:24;100698.55;;;25.28;37.79
67373;BME280;54257;54.496;18.412;2022-08-11T16:05:12;100692.72;;;25.08;37.80
67373;BME280;54257;54.496;18.412;2022-08-11T16:07:41;100696.64;;;24.94;37.47
67373;BME280;54257;54.496;18.412;2022-08-11T16:10:16;100690.37;;;24.81;38.18
67373;BME280;54257;54.496;18.412;2022-08-11T16:12:50;100692.18;;;24.73;38.76
67373;BME280;54257;54.496;18.412;2022-08-11T16:15:33;100688.95;;;24.64;38.61
67373;BME280;54257;54.496;18.412;2022-08-11T16:18:22;100691.20;;;24.53;39.32
67373;BME280;54257;54.496;18.412;2022-08-11T16:20:54;100696.79;;;24.41;39.46
67373;BME280;54257;54.496;18.412;2022-08-11T16:23:23;100701.14;;;24.29;40.17
67373;BME280;54257;54.496;18.412;2022-08-11T16:25:54;100702.86;;;24.17;40.66
67373;BME280;54257;54.496;18.412;2022-08-11T16:28:23;100704.10;;;24.10;41.15
67373;BME280;54257;54.496;18.412;2022-08-11T16:30:52;100704.05;;;23.99;40.96
67373;BME280;54257;54.496;18.412;2022-08-11T16:33:21;100701.33;;;23.90;40.70
67373;BME280;54257;54.496;18.412;2022-08-11T16:35:50;100697.60;;;23.79;41.02
67373;BME280;54257;54.496;18.412;2022-08-11T16:38:37;100696.52;;;23.67;41.76
67373;BME280;54257;54.496;18.412;2022-08-11T16:41:18;100691.38;;;23.55;41.87
67373;BME280;54257;54.496;18.412;2022-08-11T16:44:08;100693.43;;;23.42;41.45
67373;BME280;54257;54.496;18.412;2022-08-11T16:46:56;100687.59;;;23.32;41.74
67373;BME280;54257;54.496;18.412;2022-08-11T16:49:40;100689.47;;;23.26;42.08
67373;BME280;54257;54.496;18.412;2022-08-11T16:52:09;100680.51;;;23.15;42.39
67373;BME280;54257;54.496;18.412;2022-08-11T16:54:40;100684.82;;;23.01;42.66
67373;BME280;54257;54.496;18.412;2022-08-11T16:57:13;100681.73;;;22.91;43.24